Aeroporto :
LOGIN :

Iscrizione | Disclaimer

   EN    FR    IT 

 










Sommario :    VFR   VFR Marginale   IFR   IFR Intensivo   IFR Molto Intensivo
Visibilità : 
Base nubi : 
>= 8 km
>= 3000ft
5 / 8 km
1000 / 3000 ft
1500m / 5 km
500 / 1000 ft
800 / 1500m
200 / 500 ft
< 800m
< 200 ft
Simboli :   Temporali  Nebbia  Neve Forte  Precipitazioni Forti  Vento > 20 kt
SIGMETs :   Varie  Temporali  Ghiacco  Turbolenza  Onda orograficha  Ceneri Vulcaniche







- Altitudine del aeroporto : 202 ft
- Codice IATA : LGW
- Carte del aeroporto


EGKK - London Gatwick

ULTIMO METAR :
  • 162050Z 19006KT 150V230 CAVOK 15/12 Q1019

METARs OBSOLETI :
  • 162020Z 20006KT 160V240 9999 FEW033 15/12 Q1019
  • 161950Z 21007KT 180V240 9999 FEW016 16/12 Q1019
  • 161920Z 22010KT 9999 FEW033 16/11 Q1019
  • 161850Z 21010KT 9999 FEW033 16/11 Q1018
  • 161820Z 22009KT 9999 FEW030 SCT035 17/11 Q1018

TAF TAF EGKK
Valido dal 16 a 18 ore il 18 a 00 ore UTC


161704Z 1618/1724 23012KT 9999 SCT025
BECMG 1718/1721 VRB03KT
Nessun NOTAM noto per questo aeroporto.
1 SIGMET conosciuto per la FIR London (EGTT) :
 
Forte onda orograficha
EGTT SIGMET 01 VALID 162010/162330 EGRR
EGTT LONDON FIR SEV MTW FCST WI N5444 W00114 - N5306 W00010 - N5156 W00445 - N5438 W00305 - N5444 W00114 FL030/180 STNR NC=



MetMap, La meteo Aeronautica in un colpo d'occhio ! - Copyright ORBIFLY Dicembre 2007 - Disclaimer

ORBIFLY MET'MAP TEAM :

Programmazione e sviluppo : Alexandra Zaïnal
Concezione e sviluppo : Baudouin d'Aumeries
Co-Programmazione e sviluppo : Marc-Olivier Méhu
Supporto tecnico e logistico : Manuel Goepfert
Aiuto per la traduzione : Arnaldo La Scala

Contatto : metmap@orbifly.com




FONTI E CREDITI :

   NOAA